Time;durP1;ratioP1;P1;durP2;ratioP2;P2;SDS_P1;SDS_P2;PMS_P1;PMS_P2;Temp;Humidity;BMP_temperature;BMP_pressure;BME280_temperature;BME280_humidity;BME280_pressure;Samples;Min_cycle;Max_cycle;Signal;HPM_P1;HPM_P2
2023/10/07 00:03:03;;;;;;;10.10;4.00;;;13.20;99.90;;;;;;5037376;28;20044;-74
2023/10/07 00:05:32;;;;;;;9.40;3.58;;;13.20;99.90;;;;;;5032415;28;20024;-74
2023/10/07 00:08:00;;;;;;;9.57;3.33;;;13.30;99.90;;;;;;5037964;28;20030;-74
2023/10/07 00:10:30;;;;;;;6.67;2.93;;;13.40;99.90;;;;;;5021277;28;20053;-74
2023/10/07 00:12:57;;;;;;;9.33;3.43;;;13.50;99.90;;;;;;5037939;28;20037;-74
2023/10/07 00:15:28;;;;;;;10.87;3.87;;;13.50;99.90;;;;;;5039883;28;20053;-73
2023/10/07 00:18:10;;;;;;;11.83;4.27;;;13.60;99.90;;;;;;5022948;28;20065;-73
2023/10/07 00:20:39;;;;;;;10.13;2.63;;;13.70;99.90;;;;;;5036774;28;20010;-74
2023/10/07 00:23:06;;;;;;;8.57;3.27;;;13.80;99.90;;;;;;5034121;28;20038;-74
2023/10/07 00:25:34;;;;;;;8.40;3.13;;;13.90;99.90;;;;;;5041325;28;20014;-75
2023/10/07 00:27:59;;;;;;;7.97;3.27;;;13.90;99.90;;;;;;5022385;28;20030;-74
2023/10/07 00:30:29;;;;;;;8.90;3.00;;;14.00;99.90;;;;;;5021764;28;20057;-73
2023/10/07 00:32:55;;;;;;;11.07;3.40;;;14.00;99.90;;;;;;5033044;28;20069;-74
2023/10/07 00:35:27;;;;;;;10.67;3.20;;;14.10;99.90;;;;;;5022428;28;20089;-74
2023/10/07 00:37:53;;;;;;;15.38;3.58;;;14.10;99.90;;;;;;5034451;28;20110;-74
2023/10/07 00:42:59;;;;;;;13.77;4.43;;;14.10;99.90;;;;;;5039388;28;20030;-74
2023/10/07 00:45:25;;;;;;;10.87;3.70;;;14.10;99.90;;;;;;5033014;28;20033;-74
2023/10/07 00:47:52;;;;;;;8.87;3.30;;;14.10;99.90;;;;;;5016703;28;20022;-76
2023/10/07 00:50:22;;;;;;;13.93;3.85;;;14.00;99.90;;;;;;5031976;28;20067;-74
2023/10/07 00:52:58;;;;;;;10.02;3.92;;;14.10;99.90;;;;;;5038999;28;20048;-74
2023/10/07 00:55:38;;;;;;;12.40;3.83;;;13.90;99.90;;;;;;5038680;28;20073;-74
2023/10/07 00:58:18;;;;;;;10.67;3.80;;;13.90;99.90;;;;;;5021453;28;20038;-74
2023/10/07 01:00:49;;;;;;;7.93;3.33;;;13.90;99.90;;;;;;5023075;28;20018;-74
2023/10/07 01:11:22;;;;;;;8.10;3.65;;;14.00;99.90;;;;;;5024931;28;20056;-74
2023/10/07 01:13:50;;;;;;;11.13;3.17;;;14.00;99.90;;;;;;5017949;28;20029;-74
2023/10/07 01:16:53;;;;;;;8.05;3.60;;;13.90;99.90;;;;;;5033704;28;20026;-74
2023/10/07 01:21:55;;;;;;;9.80;3.77;;;13.90;99.90;;;;;;5037006;28;20045;-73
2023/10/07 01:27:18;;;;;;;8.75;2.90;;;13.70;99.90;;;;;;5038444;28;20042;-75
2023/10/07 01:29:44;;;;;;;9.03;3.37;;;13.70;99.90;;;;;;5031417;28;20033;-73
2023/10/07 01:32:16;;;;;;;11.30;4.47;;;13.70;99.90;;;;;;5036136;28;20046;-74
2023/10/07 01:34:48;;;;;;;9.13;3.63;;;13.60;99.90;;;;;;5021865;28;20026;-74
2023/10/07 01:37:21;;;;;;;12.57;3.53;;;13.60;99.90;;;;;;5038091;28;20029;-74
2023/10/07 01:39:49;;;;;;;10.97;3.40;;;13.60;99.90;;;;;;5016649;28;20026;-74
2023/10/07 01:47:55;;;;;;;11.30;3.87;;;13.50;99.90;;;;;;5039395;28;20052;-74
2023/10/07 01:50:23;;;;;;;10.47;4.07;;;13.50;99.90;;;;;;5037476;28;20101;-74
2023/10/07 01:52:55;;;;;;;7.80;3.87;;;13.50;99.90;;;;;;5032994;28;20036;-74
2023/10/07 01:55:26;;;;;;;12.13;3.80;;;13.50;99.90;;;;;;5032380;28;20036;-75
2023/10/07 01:57:54;;;;;;;8.40;3.33;;;13.60;99.90;;;;;;5018864;28;20018;-75
2023/10/07 02:00:36;;;;;;;11.97;4.33;;;13.60;99.90;;;;;;5019965;28;20022;-74
2023/10/07 02:03:03;;;;;;;11.60;3.60;;;13.60;99.90;;;;;;5021360;28;20025;-74
2023/10/07 02:05:40;;;;;;;8.47;3.90;;;13.60;99.90;;;;;;5036939;28;20018;-74
2023/10/07 02:08:21;;;;;;;11.87;3.30;;;13.60;99.90;;;;;;5037015;28;20072;-74
2023/10/07 02:10:52;;;;;;;7.20;3.17;;;13.60;99.90;;;;;;5015090;28;20026;-74
2023/10/07 02:13:19;;;;;;;10.30;4.27;;;13.70;99.90;;;;;;5031885;28;20026;-74
2023/10/07 02:15:51;;;;;;;6.83;3.37;;;13.70;99.90;;;;;;5014732;28;20028;-73
2023/10/07 02:18:17;;;;;;;9.85;3.72;;;13.80;99.90;;;;;;5031746;28;20034;-74
2023/10/07 02:21:06;;;;;;;14.93;3.87;;;13.60;99.90;;;;;;5030747;28;20038;-74
2023/10/07 02:26:05;;;;;;;14.55;4.05;;;13.50;99.90;;;;;;5037866;28;20061;-75
2023/10/07 02:28:33;;;;;;;9.57;3.72;;;13.50;99.90;;;;;;5036289;28;20239;-74
2023/10/07 02:31:15;;;;;;;10.07;4.07;;;13.50;99.90;;;;;;5031434;28;20018;-74
2023/10/07 02:33:42;;;;;;;10.90;4.57;;;13.50;99.90;;;;;;5030978;28;20037;-75
2023/10/07 02:36:13;;;;;;;12.30;4.10;;;13.50;99.90;;;;;;5036639;28;20018;-74
2023/10/07 02:38:43;;;;;;;9.82;3.83;;;13.40;99.90;;;;;;5032891;28;20014;-75
2023/10/07 02:41:20;;;;;;;10.03;3.50;;;13.50;99.90;;;;;;5036647;28;20037;-75
2023/10/07 02:43:48;;;;;;;17.40;4.63;;;13.40;99.90;;;;;;5009621;28;20014;-74
2023/10/07 02:46:32;;;;;;;9.60;4.57;;;13.40;99.90;;;;;;5015199;28;20056;-74
2023/10/07 02:49:03;;;;;;;12.23;3.87;;;13.40;99.90;;;;;;5031449;28;20028;-74
2023/10/07 02:51:28;;;;;;;11.33;5.03;;;13.50;99.90;;;;;;5031922;28;20037;-74
2023/10/07 02:54:05;;;;;;;11.30;3.77;;;13.50;99.90;;;;;;5015414;28;20041;-74
2023/10/07 02:56:43;;;;;;;14.37;5.67;;;13.50;99.90;;;;;;5026819;28;20048;-74
2023/10/07 02:59:28;;;;;;;9.57;3.77;;;13.60;99.90;;;;;;5027894;28;20018;-74
2023/10/07 03:02:12;;;;;;;8.97;4.03;;;13.60;99.90;;;;;;5032718;28;20022;-74
2023/10/07 03:04:43;;;;;;;14.47;4.33;;;13.50;99.90;;;;;;5030738;28;20014;-75
2023/10/07 03:07:17;;;;;;;8.97;4.30;;;13.50;99.90;;;;;;5032874;28;20054;-75
2023/10/07 03:12:28;;;;;;;12.30;4.57;;;13.60;99.90;;;;;;5032654;28;20048;-75
2023/10/07 03:15:05;;;;;;;11.47;3.97;;;13.50;99.90;;;;;;5032474;28;20018;-74
2023/10/07 03:17:39;;;;;;;10.87;3.97;;;13.50;99.90;;;;;;5030686;28;20045;-74
2023/10/07 03:20:27;;;;;;;14.37;5.20;;;13.60;99.90;;;;;;5032305;28;20010;-74
2023/10/07 03:23:11;;;;;;;13.23;4.37;;;13.60;99.90;;;;;;5031607;28;20026;-74
2023/10/07 03:26:05;;;;;;;9.43;3.97;;;13.60;99.90;;;;;;5013991;28;20034;-74
2023/10/07 03:28:46;;;;;;;9.03;3.87;;;13.60;99.90;;;;;;5033835;28;20060;-74
2023/10/07 03:31:12;;;;;;;8.70;4.07;;;13.60;99.90;;;;;;5013034;28;20022;-75
2023/10/07 03:33:48;;;;;;;15.43;4.80;;;13.60;99.90;;;;;;5035632;28;20067;-74
2023/10/07 03:41:35;;;;;;;9.88;4.45;;;13.70;99.90;;;;;;5035392;28;20052;-74
2023/10/07 03:44:02;;;;;;;18.60;5.70;;;13.70;99.90;;;;;;5018743;28;20165;-74
2023/10/07 03:46:27;;;;;;;12.80;5.05;;;13.80;99.90;;;;;;5022157;28;20014;-74
2023/10/07 03:48:56;;;;;;;13.00;4.60;;;13.80;99.90;;;;;;5021527;28;20047;-74
2023/10/07 03:51:22;;;;;;;15.33;5.53;;;13.80;99.90;;;;;;5039351;28;20026;-75
2023/10/07 03:53:57;;;;;;;10.48;4.93;;;13.80;99.90;;;;;;5034505;28;20029;-74
2023/10/07 03:56:22;;;;;;;10.55;5.18;;;13.80;99.90;;;;;;5021584;28;20025;-74
2023/10/07 03:58:51;;;;;;;16.33;5.10;;;13.80;99.90;;;;;;5038690;28;20010;-74
2023/10/07 04:01:26;;;;;;;12.57;4.80;;;13.80;99.90;;;;;;5021554;28;20030;-74
2023/10/07 04:03:59;;;;;;;14.93;5.70;;;13.90;99.90;;;;;;5022104;28;20033;-74
2023/10/07 04:06:34;;;;;;;13.02;5.50;;;13.90;99.90;;;;;;5038749;28;20032;-74
2023/10/07 04:09:06;;;;;;;12.20;5.55;;;13.90;99.90;;;;;;5015938;28;20102;-74
2023/10/07 04:11:37;;;;;;;14.40;6.07;;;13.90;99.90;;;;;;5039763;28;20022;-74
2023/10/07 04:16:52;;;;;;;13.48;5.53;;;14.00;99.90;;;;;;5039566;28;20053;-73
2023/10/07 04:21:50;;;;;;;17.25;5.93;;;13.90;99.90;;;;;;5038906;28;20037;-74
2023/10/07 04:24:19;;;;;;;;;;;13.90;99.90;;;;;;5034602;28;20048;-74
2023/10/07 04:26:54;;;;;;;16.70;4.90;;;13.90;99.90;;;;;;5032090;28;19909;-74
2023/10/07 04:29:24;;;;;;;11.10;4.83;;;13.90;99.90;;;;;;5021292;28;20029;-74
2023/10/07 04:31:51;;;;;;;11.57;4.57;;;13.90;99.90;;;;;;5038234;28;20036;-74
2023/10/07 04:34:23;;;;;;;19.17;6.47;;;13.80;99.90;;;;;;5032689;28;20022;-74
2023/10/07 04:39:29;;;;;;;13.82;5.47;;;13.80;99.90;;;;;;5038472;28;19901;-74
2023/10/07 04:42:04;;;;;;;18.07;6.10;;;13.80;99.90;;;;;;5031516;28;20032;-74
2023/10/07 04:47:27;;;;;;;17.23;5.60;;;13.90;99.90;;;;;;5038042;28;20026;-75
2023/10/07 04:52:31;;;;;;;12.27;6.18;;;14.00;99.90;;;;;;5038859;28;20038;-74
2023/10/07 04:54:58;;;;;;;12.57;4.72;;;14.00;99.90;;;;;;5034032;28;20018;-74
2023/10/07 04:57:44;;;;;;;14.82;5.97;;;14.00;99.90;;;;;;5020504;28;20026;-74
2023/10/07 05:02:57;;;;;;;;;;;14.10;99.90;;;;;;5037923;28;20022;-74
2023/10/07 05:05:30;;;;;;;11.85;6.00;;;14.10;99.90;;;;;;5037735;28;19921;-74
2023/10/07 05:08:08;;;;;;;13.32;5.38;;;14.10;99.90;;;;;;5037220;28;20033;-74
2023/10/07 05:10:43;;;;;;;10.25;4.90;;;14.10;99.90;;;;;;5038560;28;20017;-75
2023/10/07 05:13:10;;;;;;;12.40;4.72;;;14.20;99.90;;;;;;5037968;28;20029;-75
2023/10/07 05:15:41;;;;;;;8.88;5.03;;;14.20;99.90;;;;;;5031214;28;20029;-74
2023/10/07 05:18:16;;;;;;;11.43;5.03;;;14.20;99.90;;;;;;5036947;28;20025;-74
2023/10/07 05:20:46;;;;;;;16.65;4.97;;;14.20;99.90;;;;;;5035762;28;20014;-74
2023/10/07 05:23:17;;;;;;;15.38;5.28;;;14.20;99.90;;;;;;5029976;28;20022;-74
2023/10/07 05:25:50;;;;;;;11.30;4.63;;;14.20;99.90;;;;;;5032421;28;20283;-74
2023/10/07 05:28:23;;;;;;;10.93;4.82;;;14.20;99.90;;;;;;5037185;28;20025;-74
2023/10/07 05:30:51;;;;;;;15.13;5.40;;;14.20;99.90;;;;;;5039586;28;20017;-74
2023/10/07 05:33:32;;;;;;;10.48;4.35;;;14.10;99.90;;;;;;5039549;28;20251;-74
2023/10/07 05:36:13;;;;;;;10.52;4.93;;;14.20;99.90;;;;;;5036719;28;20021;-74
2023/10/07 05:38:44;;;;;;;14.05;5.47;;;14.10;99.90;;;;;;5038174;28;20022;-74
2023/10/07 05:41:14;;;;;;;11.48;5.00;;;14.10;99.90;;;;;;5020485;28;20025;-74
2023/10/07 05:43:44;;;;;;;12.90;5.05;;;14.10;99.90;;;;;;5032294;28;20098;-75
2023/10/07 05:46:10;;;;;;;9.07;4.35;;;14.10;99.90;;;;;;5038129;28;21193;-74
2023/10/07 05:48:40;;;;;;;10.07;4.75;;;14.10;99.90;;;;;;5033094;28;20068;-74
2023/10/07 05:51:08;;;;;;;9.48;4.57;;;14.10;99.90;;;;;;5018746;28;20044;-74
2023/10/07 05:53:37;;;;;;;10.32;4.70;;;14.00;99.90;;;;;;5020754;28;20040;-74
2023/10/07 05:56:11;;;;;;;7.80;4.32;;;14.00;99.90;;;;;;5033170;28;20049;-74
2023/10/07 05:58:39;;;;;;;10.90;4.30;;;14.00;99.90;;;;;;5037256;28;20383;-74
2023/10/07 06:01:06;;;;;;;9.55;4.80;;;14.00;99.90;;;;;;5032216;28;20014;-74
2023/10/07 06:03:36;;;;;;;11.88;4.75;;;14.10;99.90;;;;;;5020567;28;20040;-74
2023/10/07 06:06:04;;;;;;;7.57;4.50;;;14.10;99.90;;;;;;5031231;28;20022;-74
2023/10/07 06:08:32;;;;;;;10.40;4.68;;;14.10;99.90;;;;;;5036498;28;20022;-74
2023/10/07 06:11:04;;;;;;;17.48;5.60;;;14.10;99.90;;;;;;5020132;28;20009;-74
2023/10/07 06:13:33;;;;;;;14.88;5.00;;;14.20;99.90;;;;;;5036979;28;20034;-74
2023/10/07 06:16:04;;;;;;;11.25;5.88;;;14.20;99.90;;;;;;5032750;28;20057;-74
2023/10/07 06:18:34;;;;;;;11.18;4.45;;;14.20;99.90;;;;;;5013795;28;20101;-74
2023/10/07 06:21:19;;;;;;;12.68;5.53;;;14.20;99.90;;;;;;5018603;28;20026;-75
2023/10/07 06:23:53;;;;;;;13.73;4.82;;;14.20;99.90;;;;;;5032213;28;20030;-74
2023/10/07 06:26:19;;;;;;;16.40;5.63;;;14.30;99.90;;;;;;5037463;28;20055;-75
2023/10/07 06:28:48;;;;;;;12.18;5.20;;;14.30;99.90;;;;;;5018370;28;20046;-75
2023/10/07 06:31:22;;;;;;;13.38;4.60;;;14.40;99.90;;;;;;5035627;28;20045;-74
2023/10/07 06:34:11;;;;;;;13.02;5.10;;;14.40;99.90;;;;;;5030378;28;20049;-74
2023/10/07 06:36:40;;;;;;;11.13;4.82;;;14.50;99.90;;;;;;5029798;28;20032;-74
2023/10/07 06:39:08;;;;;;;11.27;4.35;;;14.50;99.90;;;;;;5035624;28;20030;-73
2023/10/07 06:41:35;;;;;;;10.82;4.60;;;14.50;99.90;;;;;;5035326;28;20069;-74
2023/10/07 06:44:08;;;;;;;20.80;5.40;;;14.50;99.90;;;;;;5018561;28;20064;-74
2023/10/07 06:46:44;;;;;;;12.82;4.53;;;14.60;99.90;;;;;;5035502;28;20033;-74
2023/10/07 06:49:18;;;;;;;8.60;3.72;;;14.60;99.90;;;;;;5035888;28;20090;-74
2023/10/07 06:51:54;;;;;;;10.30;4.53;;;14.60;99.90;;;;;;5030238;28;20102;-75
2023/10/07 06:54:24;;;;;;;10.07;4.35;;;14.60;99.90;;;;;;5027534;28;20086;-74
2023/10/07 06:56:51;;;;;;;13.65;5.53;;;14.60;99.90;;;;;;5034641;28;20018;-74
2023/10/07 06:59:17;;;;;;;16.85;6.55;;;14.60;99.90;;;;;;5034593;28;20018;-74
2023/10/07 07:04:19;;;;;;;8.30;4.60;;;14.70;99.90;;;;;;5034705;28;20026;-75
2023/10/07 07:06:57;;;;;;;10.43;3.95;;;14.70;99.90;;;;;;5029931;28;20022;-74
2023/10/07 07:09:43;;;;;;;8.18;3.78;;;14.70;99.90;;;;;;5029269;28;20125;-74
2023/10/07 07:12:09;;;;;;;10.10;4.75;;;14.80;99.90;;;;;;5029821;28;20101;-74
2023/10/07 07:14:41;;;;;;;13.88;4.75;;;14.90;99.90;;;;;;5018557;28;20086;-75
2023/10/07 07:22:44;;;;;;;13.75;4.68;;;15.00;99.90;;;;;;5035679;28;20024;-75
2023/10/07 07:25:18;;;;;;;;;;;15.10;99.90;;;;;;5035943;28;20026;-75
2023/10/07 07:27:48;;;;;;;10.95;4.13;;;15.10;99.90;;;;;;5034935;28;19940;-74
2023/10/07 07:30:20;;;;;;;14.77;4.50;;;15.10;99.90;;;;;;5033265;28;20045;-75
2023/10/07 07:32:56;;;;;;;11.02;3.67;;;15.20;99.90;;;;;;5017715;28;20026;-74
2023/10/07 07:35:37;;;;;;;11.35;4.90;;;15.30;99.90;;;;;;5034925;28;20045;-75
2023/10/07 07:41:11;;;;;;;11.20;3.90;;;15.50;99.90;;;;;;5034913;28;20037;-74
2023/10/07 07:43:42;;;;;;;9.90;3.58;;;15.50;99.90;;;;;;5033984;28;20034;-74
2023/10/07 07:46:29;;;;;;;8.55;3.05;;;15.60;99.90;;;;;;5035899;28;20037;-74
2023/10/07 07:49:06;;;;;;;8.60;4.22;;;15.70;99.90;;;;;;5035887;28;20145;-75
2023/10/07 07:51:39;;;;;;;6.03;3.03;;;15.70;99.90;;;;;;5018078;28;20175;-74
2023/10/07 07:54:09;;;;;;;10.63;3.28;;;15.80;99.90;;;;;;5035585;28;20026;-74
2023/10/07 07:56:35;;;;;;;12.27;4.13;;;15.90;99.90;;;;;;5034716;28;20018;-74
2023/10/07 07:59:13;;;;;;;6.40;3.33;;;15.90;99.90;;;;;;5019757;28;20033;-75
2023/10/07 08:02:01;;;;;;;11.25;3.40;;;15.90;99.90;;;;;;5036180;28;20048;-75
2023/10/07 08:04:42;;;;;;;7.88;3.08;;;16.00;99.90;;;;;;5034666;28;20018;-74
2023/10/07 08:07:27;;;;;;;12.32;3.85;;;16.00;99.90;;;;;;5034353;28;20025;-74
2023/10/07 08:10:10;;;;;;;6.88;2.65;;;16.00;99.90;;;;;;5020666;28;20049;-75
2023/10/07 08:12:36;;;;;;;6.55;3.22;;;16.00;99.90;;;;;;5030076;28;20065;-74
2023/10/07 08:15:40;;;;;;;7.43;3.60;;;16.10;99.90;;;;;;5018762;28;20530;-74
2023/10/07 08:17:59;;;;;;;9.70;3.58;;;16.10;99.90;;;;;;5035454;28;20046;-74
2023/10/07 08:20:37;;;;;;;8.57;3.15;;;16.10;99.90;;;;;;5035212;28;20259;-74
2023/10/07 08:23:07;;;;;;;8.57;3.05;;;16.20;99.90;;;;;;5013772;28;20026;-74
2023/10/07 08:25:46;;;;;;;8.10;3.55;;;16.20;99.90;;;;;;5036213;28;20026;-74
2023/10/07 08:28:19;;;;;;;11.70;4.03;;;16.30;99.90;;;;;;5011235;28;20053;-74
2023/10/07 08:30:50;;;;;;;9.23;3.60;;;16.30;99.90;;;;;;5035703;28;20085;-75
2023/10/07 08:33:23;;;;;;;13.60;3.20;;;16.30;99.90;;;;;;5038543;28;20033;-74
2023/10/07 08:35:52;;;;;;;11.50;3.40;;;16.30;99.90;;;;;;5033302;28;20029;-74
2023/10/07 08:39:04;;;;;;;10.85;3.30;;;16.30;99.90;;;;;;5040397;28;20025;-75
2023/10/07 08:41:07;;;;;;;11.27;3.45;;;16.30;99.90;;;;;;5033386;28;20018;-73
2023/10/07 08:44:02;;;;;;;6.43;3.00;;;16.30;99.90;;;;;;5018746;28;20028;-74
2023/10/07 08:46:28;;;;;;;11.15;3.78;;;16.40;99.90;;;;;;5035047;28;20029;-75
2023/10/07 08:49:04;;;;;;;12.75;4.00;;;16.40;99.90;;;;;;5039350;28;20064;-75
2023/10/07 08:51:41;;;;;;;6.57;2.83;;;16.50;99.90;;;;;;5040061;28;20117;-74
2023/10/07 08:54:17;;;;;;;8.68;3.05;;;16.60;99.90;;;;;;5034521;28;20018;-74
2023/10/07 08:56:54;;;;;;;7.22;3.13;;;16.70;99.90;;;;;;5040018;28;20014;-74
2023/10/07 08:59:30;;;;;;;9.25;3.05;;;16.80;99.90;;;;;;5043175;28;20021;-74
2023/10/07 09:02:00;;;;;;;11.15;3.00;;;16.90;99.90;;;;;;5034501;28;20026;-74
2023/10/07 09:04:31;;;;;;;10.00;2.75;;;17.00;99.90;;;;;;5032667;28;20017;-75
2023/10/07 09:07:08;;;;;;;6.25;3.10;;;17.00;99.90;;;;;;5033220;28;20226;-74
2023/10/07 09:09:38;;;;;;;7.93;2.53;;;17.00;99.90;;;;;;5040915;28;20038;-74
2023/10/07 09:12:18;;;;;;;9.38;3.65;;;17.10;99.90;;;;;;5035953;28;20038;-74
2023/10/07 09:14:55;;;;;;;9.93;3.20;;;17.10;99.90;;;;;;5039978;28;20028;-74
2023/10/07 09:17:23;;;;;;;8.85;2.75;;;17.10;99.90;;;;;;5021701;28;20128;-74
2023/10/07 09:19:58;;;;;;;8.90;3.17;;;17.00;99.90;;;;;;5032865;28;20094;-74
2023/10/07 09:22:27;;;;;;;9.35;2.67;;;17.00;99.90;;;;;;5016529;28;20026;-75
2023/10/07 09:24:55;;;;;;;8.93;3.50;;;17.00;99.90;;;;;;5037346;28;20011;-74
2023/10/07 09:27:36;;;;;;;7.18;2.88;;;16.90;99.90;;;;;;5021423;28;20056;-74
2023/10/07 09:30:32;;;;;;;11.35;3.13;;;17.00;99.90;;;;;;5033636;28;20036;-75
2023/10/07 09:32:55;;;;;;;12.93;4.25;;;17.00;99.90;;;;;;5038027;28;20047;-74
2023/10/07 09:35:24;;;;;;;10.05;2.70;;;17.00;99.90;;;;;;5037957;28;20013;-74
2023/10/07 09:37:53;;;;;;;7.13;3.35;;;17.10;99.90;;;;;;5033176;28;20026;-74
2023/10/07 09:43:19;;;;;;;6.13;3.25;;;17.20;99.90;;;;;;5038621;28;20029;-74
2023/10/07 09:45:52;;;;;;;8.10;3.03;;;17.20;99.90;;;;;;5038062;28;20018;-74
2023/10/07 09:48:31;;;;;;;15.30;3.30;;;17.30;99.90;;;;;;5038703;28;20026;-74
2023/10/07 09:50:58;;;;;;;10.05;2.70;;;17.30;99.90;;;;;;5035192;28;20056;-74
2023/10/07 09:53:49;;;;;;;6.03;2.83;;;17.40;99.90;;;;;;5019406;28;20101;-74
2023/10/07 09:56:38;;;;;;;6.93;2.70;;;17.40;99.90;;;;;;5033724;28;20022;-75
2023/10/07 09:59:51;;;;;;;11.95;3.28;;;17.50;99.90;;;;;;5034726;28;20020;-74
2023/10/07 10:03:03;;;;;;;9.18;3.25;;;17.60;99.90;;;;;;5007595;28;20018;-75
2023/10/07 10:05:44;;;;;;;9.13;3.30;;;17.60;99.90;;;;;;5018327;28;20034;-77
2023/10/07 10:08:55;;;;;;;7.07;3.00;;;17.60;99.90;;;;;;5032918;28;20032;-75
2023/10/07 10:11:31;;;;;;;15.23;3.13;;;17.60;99.90;;;;;;5034014;28;20041;-74
2023/10/07 10:16:57;;;;;;;8.73;3.28;;;17.70;99.90;;;;;;5037623;28;20029;-77
2023/10/07 10:20:00;;;;;;;7.93;2.42;;;17.80;99.90;;;;;;5039471;28;20018;-74
2023/10/07 10:22:30;;;;;;;9.20;2.78;;;17.90;99.90;;;;;;5038473;28;20010;-74
2023/10/07 10:25:21;;;;;;;11.10;3.13;;;17.90;99.90;;;;;;5019942;28;20022;-74
2023/10/07 10:27:58;;;;;;;7.82;2.65;;;17.90;99.90;;;;;;5033200;28;20010;-74
2023/10/07 10:30:24;;;;;;;7.20;3.10;;;17.90;99.90;;;;;;5039330;28;20045;-74
2023/10/07 10:32:57;;;;;;;10.68;3.28;;;18.00;99.90;;;;;;5019241;28;20030;-74
2023/10/07 10:35:27;;;;;;;7.30;2.28;;;18.00;99.90;;;;;;5031002;28;20037;-79
2023/10/07 10:37:57;;;;;;;10.85;2.55;;;18.10;99.90;;;;;;5020676;28;20040;-76
2023/10/07 10:40:24;;;;;;;8.48;2.55;;;18.20;99.90;;;;;;4998897;28;20365;-78
2023/10/07 10:42:50;;;;;;;4.60;2.40;;;18.20;99.90;;;;;;5029223;28;20049;-74
2023/10/07 10:45:30;;;;;;;5.07;2.30;;;18.30;99.90;;;;;;5035490;28;20030;-74
2023/10/07 10:47:59;;;;;;;6.65;1.80;;;18.40;99.90;;;;;;5026113;28;20038;-79
2023/10/07 10:50:28;;;;;;;7.95;3.55;;;18.40;99.90;;;;;;5012475;28;20034;-79
2023/10/07 10:52:55;;;;;;;5.78;2.17;;;18.50;99.90;;;;;;5011844;28;20050;-81
2023/10/07 10:55:24;;;;;;;4.47;2.22;;;18.60;99.90;;;;;;5011416;28;20442;-79
2023/10/07 10:57:50;;;;;;;4.57;2.30;;;18.70;99.90;;;;;;4997408;28;20037;-80
2023/10/07 11:00:21;;;;;;;6.57;1.90;;;18.70;99.90;;;;;;5016494;28;20495;-82
2023/10/07 11:02:51;;;;;;;9.88;2.50;;;18.90;99.90;;;;;;5010072;28;20458;-81
2023/10/07 11:05:17;;;;;;;3.85;2.15;;;19.00;99.90;;;;;;5005228;28;20037;-83
2023/10/07 11:07:44;;;;;;;5.88;2.08;;;19.00;99.90;;;;;;5001263;28;20088;-81
2023/10/07 11:10:20;;;;;;;4.72;2.05;;;19.10;99.90;;;;;;5011663;28;20025;-81
2023/10/07 11:12:53;;;;;;;5.95;2.33;;;19.10;99.90;;;;;;5003172;28;20026;-79
2023/10/07 11:15:30;;;;;;;5.57;2.30;;;19.20;99.90;;;;;;5011024;28;20092;-79
2023/10/07 11:17:58;;;;;;;3.80;1.70;;;19.30;99.90;;;;;;5009107;28;20041;-81
2023/10/07 11:20:30;;;;;;;3.38;1.70;;;19.30;99.90;;;;;;5003251;28;20057;-79
2023/10/07 11:22:57;;;;;;;7.20;2.22;;;19.40;99.90;;;;;;4995290;28;20034;-82
2023/10/07 11:25:24;;;;;;;6.78;2.50;;;19.50;99.90;;;;;;5009723;28;20093;-80
2023/10/07 11:27:54;;;;;;;8.10;2.17;;;19.50;99.90;;;;;;5009640;28;20081;-83
2023/10/07 11:30:22;;;;;;;4.22;1.88;;;19.60;99.90;;;;;;4991889;28;20033;-83
2023/10/07 11:32:47;;;;;;;7.82;1.90;;;19.70;99.90;;;;;;5010720;28;20025;-84
2023/10/07 11:35:16;;;;;;;5.93;2.10;;;19.70;99.90;;;;;;5009679;28;20049;-78
2023/10/07 11:37:58;;;;;;;3.88;2.08;;;19.70;99.90;;;;;;5004366;28;20216;-84
2023/10/07 11:40:25;;;;;;;8.57;2.38;;;19.80;99.90;;;;;;5004891;28;20141;-83
2023/10/07 11:42:52;;;;;;;5.15;1.95;;;19.80;99.90;;;;;;5010172;28;20797;-85
2023/10/07 11:45:22;;;;;;;6.20;2.35;;;19.90;99.90;;;;;;5011002;28;20021;-83
2023/10/07 11:47:48;;;;;;;5.88;2.10;;;19.90;99.90;;;;;;5003309;28;20030;-85
2023/10/07 11:50:16;;;;;;;8.38;3.03;;;20.00;99.90;;;;;;5008802;28;20099;-82
2023/10/07 11:52:42;;;;;;;7.93;2.30;;;20.00;99.90;;;;;;4991030;28;20096;-84
2023/10/07 11:55:09;;;;;;;5.20;2.08;;;20.10;99.90;;;;;;5005547;28;20120;-82
2023/10/07 11:57:38;;;;;;;6.80;1.83;;;20.20;99.90;;;;;;5009746;28;20026;-82
2023/10/07 12:00:22;;;;;;;7.85;2.30;;;20.20;99.90;;;;;;5006658;28;20196;-84
2023/10/07 12:02:49;;;;;;;6.05;1.80;;;20.30;99.90;;;;;;5009522;28;20036;-84
2023/10/07 12:05:18;;;;;;;4.05;1.70;;;20.30;99.90;;;;;;5004764;28;20049;-84
2023/10/07 12:07:47;;;;;;;6.80;2.30;;;20.30;99.90;;;;;;5002542;28;20064;-82
2023/10/07 12:10:16;;;;;;;4.35;1.88;;;20.30;99.90;;;;;;5011365;28;20045;-84
2023/10/07 12:12:45;;;;;;;8.10;2.17;;;20.30;99.90;;;;;;5004299;28;20030;-80
2023/10/07 12:15:15;;;;;;;4.65;2.17;;;20.40;99.90;;;;;;4994995;28;20037;-85
2023/10/07 12:17:44;;;;;;;6.13;2.45;;;20.40;99.90;;;;;;4995171;28;20120;-85
2023/10/07 12:20:13;;;;;;;4.30;2.10;;;20.50;99.90;;;;;;5012508;28;20022;-84
2023/10/07 12:22:42;;;;;;;5.00;2.10;;;20.60;99.90;;;;;;4996008;28;20038;-82
2023/10/07 12:25:16;;;;;;;7.13;2.05;;;20.70;99.90;;;;;;4994713;28;20029;-82
2023/10/07 12:27:48;;;;;;;5.25;2.05;;;20.70;99.90;;;;;;5005259;28;20126;-83
2023/10/07 12:30:20;;;;;;;9.98;2.38;;;20.80;99.90;;;;;;4988168;28;20160;-85
2023/10/07 12:32:49;;;;;;;;;;;20.90;99.90;;;;;;5012924;28;20049;-84
2023/10/07 12:35:18;;;;;;;9.88;1.90;;;21.00;99.90;;;;;;5012627;28;19928;-83
2023/10/07 12:37:47;;;;;;;3.58;1.77;;;21.00;99.90;;;;;;5012094;28;20061;-84
2023/10/07 12:40:14;;;;;;;4.65;2.00;;;21.00;99.90;;;;;;4988568;28;20033;-82
2023/10/07 12:42:41;;;;;;;6.20;1.98;;;21.10;99.90;;;;;;5013657;28;20045;-81
2023/10/07 12:45:09;;;;;;;10.35;2.25;;;21.10;99.90;;;;;;5007912;28;20026;-81
2023/10/07 12:47:36;;;;;;;6.72;2.25;;;21.10;99.90;;;;;;5008870;28;20033;-81
2023/10/07 12:50:24;;;;;;;6.18;2.28;;;21.30;99.90;;;;;;4994571;28;20041;-83
2023/10/07 12:52:52;;;;;;;5.95;2.22;;;21.40;99.90;;;;;;5010718;28;20042;-80
2023/10/07 12:55:18;;;;;;;8.15;2.17;;;21.50;99.90;;;;;;4989312;28;20025;-84
2023/10/07 12:57:44;;;;;;;5.70;2.08;;;21.50;99.90;;;;;;5004345;28;20092;-80
2023/10/07 13:00:20;;;;;;;6.03;2.05;;;21.60;99.90;;;;;;5005484;28;20101;-82
2023/10/07 13:02:47;;;;;;;11.38;2.88;;;21.70;99.90;;;;;;5007216;28;20037;-86
2023/10/07 13:05:18;;;;;;;5.28;2.33;;;21.70;99.90;;;;;;5013822;28;20068;-83
2023/10/07 13:07:47;;;;;;;5.40;2.17;;;21.80;99.90;;;;;;5006968;28;20034;-81
2023/10/07 13:10:18;;;;;;;7.68;2.35;;;22.10;99.90;;;;;;5011609;28;21638;-84
2023/10/07 13:12:44;;;;;;;7.15;2.47;;;22.60;99.90;;;;;;4993717;28;20042;-80
2023/10/07 13:15:18;;;;;;;9.50;2.80;;;23.20;99.90;;;;;;5010805;28;20125;-80
2023/10/07 13:17:48;;;;;;;5.30;2.08;;;23.40;99.90;;;;;;5012360;28;20095;-82
2023/10/07 13:20:23;;;;;;;8.85;2.20;;;23.10;99.90;;;;;;5007023;28;21082;-81
2023/10/07 13:22:50;;;;;;;5.00;2.40;;;23.00;99.90;;;;;;5006592;28;20088;-83
2023/10/07 13:25:20;;;;;;;7.05;2.60;;;23.30;99.90;;;;;;5011418;28;20044;-84
2023/10/07 13:27:49;;;;;;;3.85;1.80;;;24.00;99.90;;;;;;5012456;28;20109;-83
2023/10/07 13:30:18;;;;;;;13.32;2.45;;;24.60;99.90;;;;;;5007195;28;20048;-82
2023/10/07 13:32:46;;;;;;;4.60;2.30;;;24.70;99.90;;;;;;5007503;28;20033;-84
2023/10/07 13:35:19;;;;;;;7.25;3.53;;;24.40;99.90;;;;;;5012792;28;20049;-82
2023/10/07 13:37:49;;;;;;;8.10;1.98;;;23.90;99.90;;;;;;5004535;28;20030;-80
2023/10/07 13:40:16;;;;;;;5.30;2.22;;;23.50;99.90;;;;;;5010025;28;20022;-80
2023/10/07 13:42:52;;;;;;;5.70;2.35;;;23.00;99.90;;;;;;5010615;28;20030;-80
2023/10/07 13:45:23;;;;;;;5.10;2.30;;;23.20;99.90;;;;;;5003432;28;20462;-80
2023/10/07 13:47:52;;;;;;;7.30;2.10;;;23.50;99.90;;;;;;5015643;28;20034;-83
2023/10/07 13:50:24;;;;;;;4.03;1.90;;;23.60;99.90;;;;;;5005511;28;20048;-84
2023/10/07 13:52:58;;;;;;;5.72;2.45;;;23.80;99.90;;;;;;4985896;28;20022;-83
2023/10/07 13:58:12;;;;;;;6.55;2.65;;;23.80;99.90;;;;;;5010376;28;20467;-82
2023/10/07 14:00:44;;;;;;;8.82;2.22;;;23.60;99.90;;;;;;5010228;28;20095;-84
2023/10/07 14:03:19;;;;;;;8.75;2.60;;;23.40;99.90;;;;;;5010223;28;20042;-82
2023/10/07 14:05:48;;;;;;;5.53;2.55;;;23.30;99.90;;;;;;4992919;28;20057;-84
2023/10/07 14:08:15;;;;;;;6.45;2.40;;;23.20;99.90;;;;;;4993299;28;20776;-83
2023/10/07 14:10:50;;;;;;;5.30;2.50;;;23.10;99.90;;;;;;4992061;28;20477;-83
2023/10/07 14:13:19;;;;;;;3.55;2.10;;;23.10;99.90;;;;;;5005526;28;20447;-82
2023/10/07 14:15:52;;;;;;;3.92;2.15;;;23.00;99.90;;;;;;5004383;28;20029;-82
2023/10/07 14:18:24;;;;;;;7.68;2.60;;;22.90;99.90;;;;;;4987565;28;20021;-83
2023/10/07 14:20:59;;;;;;;9.02;2.88;;;22.80;99.90;;;;;;5002422;28;20041;-82